createdAt,value
2019-01-30T00:00:24.116Z,14.47
2019-01-30T00:02:58.373Z,13.93
2019-01-30T00:05:31.651Z,18.37
2019-01-30T00:08:01.989Z,12.50
2019-01-30T00:10:32.369Z,13.30
2019-01-30T00:13:02.726Z,13.20
2019-01-30T00:15:33.005Z,14.67
2019-01-30T00:18:03.481Z,14.63
2019-01-30T00:20:33.819Z,14.20
2019-01-30T00:23:05.776Z,18.83
2019-01-30T00:25:36.099Z,13.97
2019-01-30T00:28:06.426Z,12.67
2019-01-30T00:30:36.891Z,15.57
2019-01-30T00:33:07.396Z,12.20
2019-01-30T00:35:37.702Z,11.17
2019-01-30T00:38:08.013Z,13.87
2019-01-30T00:40:38.334Z,14.90
2019-01-30T00:43:08.804Z,11.30
2019-01-30T00:45:39.287Z,14.43
2019-01-30T00:48:09.776Z,14.20
2019-01-30T00:50:41.552Z,11.90
2019-01-30T00:53:11.943Z,14.30
2019-01-30T00:55:44.010Z,14.93
2019-01-30T00:58:14.335Z,19.50
2019-01-30T01:00:44.593Z,17.07
2019-01-30T01:03:15.055Z,20.07
2019-01-30T01:05:45.374Z,14.23
2019-01-30T01:08:15.792Z,19.40
2019-01-30T01:10:46.150Z,16.00
2019-01-30T01:13:16.448Z,17.07
2019-01-30T01:15:46.786Z,17.50
2019-01-30T01:18:17.102Z,14.03
2019-01-30T01:20:47.554Z,14.43
2019-01-30T01:23:19.238Z,18.37
2019-01-30T01:25:49.497Z,14.03
2019-01-30T01:28:20.951Z,15.00
2019-01-30T01:30:51.263Z,18.97
2019-01-30T01:33:21.911Z,22.00
2019-01-30T01:35:52.147Z,19.17
2019-01-30T01:38:23.134Z,17.57
2019-01-30T01:40:53.423Z,18.70
2019-01-30T01:43:25.112Z,15.63
2019-01-30T01:45:57.044Z,19.83
2019-01-30T01:48:27.388Z,13.03
2019-01-30T01:50:57.727Z,16.40
2019-01-30T01:53:28.193Z,17.70
2019-01-30T01:55:58.586Z,18.50
2019-01-30T01:58:28.898Z,18.67
2019-01-30T02:00:59.297Z,20.37
2019-01-30T02:03:29.860Z,18.93
2019-01-30T02:06:00.228Z,21.17
2019-01-30T02:08:30.544Z,16.50
2019-01-30T02:11:00.966Z,22.37
2019-01-30T02:13:31.413Z,20.50
2019-01-30T02:16:01.727Z,17.60
2019-01-30T02:18:32.093Z,18.57
2019-01-30T02:21:03.985Z,19.33
2019-01-30T02:23:34.407Z,21.47
2019-01-30T02:26:04.857Z,18.80
2019-01-30T02:28:35.293Z,15.83
2019-01-30T02:31:05.559Z,17.50
2019-01-30T02:33:35.847Z,15.93
2019-01-30T02:36:06.122Z,17.40
2019-01-30T02:38:36.488Z,19.97
2019-01-30T02:41:06.786Z,20.93
2019-01-30T02:43:37.224Z,21.53
2019-01-30T02:46:07.594Z,22.70
2019-01-30T02:48:38.052Z,17.50
2019-01-30T02:51:08.597Z,22.13
2019-01-30T02:53:39.071Z,20.63
2019-01-30T02:56:09.726Z,23.67
2019-01-30T02:58:40.151Z,19.77
2019-01-30T03:01:11.819Z,19.83
2019-01-30T03:03:42.943Z,23.80
2019-01-30T03:06:13.240Z,20.67
2019-01-30T03:08:43.707Z,20.23
2019-01-30T03:11:14.364Z,19.87
2019-01-30T03:13:44.655Z,21.00
2019-01-30T03:16:15.063Z,25.13
2019-01-30T03:18:45.425Z,21.73
2019-01-30T03:21:17.288Z,22.13
2019-01-30T03:23:47.647Z,21.90
2019-01-30T03:26:18.006Z,24.13
2019-01-30T03:28:48.350Z,28.23
2019-01-30T03:31:19.491Z,27.13
2019-01-30T03:33:50.180Z,24.03
2019-01-30T03:36:20.536Z,26.07
2019-01-30T03:38:50.862Z,26.37
2019-01-30T03:41:21.222Z,23.50
2019-01-30T03:43:51.536Z,29.23
2019-01-30T03:46:21.942Z,27.00
2019-01-30T03:48:52.269Z,26.07
2019-01-30T03:51:22.572Z,28.33
2019-01-30T03:53:52.953Z,25.20
2019-01-30T03:56:24.357Z,26.57
2019-01-30T03:58:54.786Z,27.53
2019-01-30T04:01:26.621Z,26.30
2019-01-30T04:03:57.105Z,27.67
2019-01-30T04:06:27.490Z,30.40
2019-01-30T04:08:57.920Z,26.93
2019-01-30T04:11:28.305Z,26.60
2019-01-30T04:14:00.679Z,27.07
2019-01-30T04:16:30.689Z,28.33
2019-01-30T04:19:01.000Z,27.50
2019-01-30T04:21:31.321Z,25.63
2019-01-30T04:24:01.600Z,28.10
2019-01-30T04:26:31.929Z,23.60
2019-01-30T04:29:02.220Z,25.63
2019-01-30T04:31:38.224Z,22.20
2019-01-30T04:34:04.811Z,27.40
2019-01-30T04:36:35.845Z,21.77
2019-01-30T04:39:08.276Z,28.37
2019-01-30T04:41:38.772Z,27.77
2019-01-30T04:44:09.064Z,27.07
2019-01-30T04:46:39.378Z,26.30
2019-01-30T04:49:09.645Z,27.10
2019-01-30T04:51:39.998Z,24.67
2019-01-30T04:54:10.398Z,26.13
2019-01-30T04:56:40.752Z,28.10
2019-01-30T04:59:11.056Z,27.63
2019-01-30T05:01:49.467Z,27.80
2019-01-30T05:04:13.462Z,25.53
2019-01-30T05:06:43.956Z,26.83
2019-01-30T05:09:14.424Z,24.13
2019-01-30T05:11:44.693Z,30.67
2019-01-30T05:14:15.027Z,29.27
2019-01-30T05:16:45.696Z,25.20
2019-01-30T05:19:16.100Z,29.33
2019-01-30T05:21:46.427Z,26.97
2019-01-30T05:24:16.740Z,28.97
2019-01-30T05:26:47.174Z,26.13
2019-01-30T05:29:17.606Z,29.37
2019-01-30T05:31:48.145Z,29.83
2019-01-30T05:34:18.474Z,24.07
2019-01-30T05:36:48.782Z,23.57
2019-01-30T05:39:19.110Z,29.63
2019-01-30T05:41:49.446Z,25.23
2019-01-30T05:44:19.725Z,27.00
2019-01-30T05:46:50.085Z,28.87
2019-01-30T05:49:21.819Z,24.07
2019-01-30T05:52:01.296Z,22.83
2019-01-30T05:54:31.599Z,24.70
2019-01-30T05:57:02.763Z,26.30
2019-01-30T05:59:33.069Z,25.53
2019-01-30T06:02:12.055Z,22.73
2019-01-30T06:04:38.254Z,21.90
2019-01-30T06:07:08.656Z,26.27
2019-01-30T06:09:39.087Z,23.00
2019-01-30T06:12:11.829Z,26.83
2019-01-30T06:14:42.197Z,28.93
2019-01-30T06:17:14.698Z,24.50
2019-01-30T06:19:45.227Z,27.10
2019-01-30T06:22:15.695Z,24.77
2019-01-30T06:24:46.403Z,26.57
2019-01-30T06:27:17.597Z,32.77
2019-01-30T06:29:48.011Z,26.37
2019-01-30T06:32:21.880Z,27.83
2019-01-30T06:34:50.282Z,35.80
2019-01-30T06:37:20.598Z,28.97
2019-01-30T06:39:51.034Z,27.50
2019-01-30T06:42:21.347Z,27.53
2019-01-30T06:44:51.604Z,38.07
2019-01-30T06:47:22.004Z,27.70
2019-01-30T06:49:52.519Z,31.20
2019-01-30T06:52:22.908Z,23.40
2019-01-30T06:54:53.302Z,32.13
2019-01-30T06:57:23.604Z,28.70
2019-01-30T06:59:54.001Z,22.50
2019-01-30T07:02:32.164Z,30.13
2019-01-30T07:04:56.513Z,28.43
2019-01-30T07:07:26.834Z,24.73
2019-01-30T07:09:57.619Z,29.67
2019-01-30T07:12:28.021Z,25.83
2019-01-30T07:14:58.323Z,26.83
2019-01-30T07:17:28.671Z,28.30
2019-01-30T07:19:59.093Z,27.40
2019-01-30T07:22:29.501Z,28.00
2019-01-30T07:24:59.904Z,26.27
2019-01-30T07:27:30.990Z,23.47
2019-01-30T07:30:01.276Z,30.97
2019-01-30T07:32:41.945Z,28.43
2019-01-30T07:35:07.417Z,25.40
2019-01-30T07:37:37.884Z,26.90
2019-01-30T07:40:09.260Z,26.30
2019-01-30T07:42:39.545Z,25.63
2019-01-30T07:45:12.333Z,29.80
2019-01-30T07:47:42.766Z,27.17
2019-01-30T07:50:13.190Z,30.00
2019-01-30T07:52:43.574Z,27.10
2019-01-30T07:55:15.607Z,31.20
2019-01-30T07:57:47.224Z,30.87
2019-01-30T08:00:29.199Z,28.43
2019-01-30T08:02:59.561Z,28.27
2019-01-30T08:05:29.973Z,26.47
2019-01-30T08:08:00.403Z,23.97
2019-01-30T08:10:52.694Z,23.93
2019-01-30T08:13:30.268Z,29.33
2019-01-30T08:16:02.620Z,29.53
2019-01-30T08:18:36.196Z,26.70
2019-01-30T08:21:06.773Z,27.93
2019-01-30T08:23:37.356Z,25.90
2019-01-30T08:26:07.991Z,25.53
2019-01-30T08:28:38.605Z,26.20
2019-01-30T08:31:09.250Z,26.63
2019-01-30T08:33:40.871Z,27.73
2019-01-30T08:36:12.830Z,25.33
2019-01-30T08:38:43.427Z,24.80
2019-01-30T08:41:14.688Z,28.33
2019-01-30T08:43:44.967Z,23.90
2019-01-30T08:46:15.427Z,24.20
2019-01-30T08:48:45.764Z,28.90
2019-01-30T08:51:16.147Z,25.80
2019-01-30T08:53:46.472Z,24.43
2019-01-30T08:56:16.832Z,23.93
2019-01-30T08:58:47.338Z,23.83
2019-01-30T09:01:17.767Z,26.27
2019-01-30T09:03:48.230Z,28.20
2019-01-30T09:06:18.668Z,24.50
2019-01-30T09:08:49.182Z,29.07
2019-01-30T09:11:19.599Z,27.67
2019-01-30T09:13:49.920Z,22.57
2019-01-30T09:16:20.213Z,24.37
2019-01-30T09:18:50.452Z,25.47
2019-01-30T09:21:20.778Z,24.20
2019-01-30T09:23:51.207Z,23.63
2019-01-30T09:26:21.519Z,23.03
2019-01-30T09:28:51.829Z,23.67
2019-01-30T09:31:22.091Z,23.03
2019-01-30T09:33:52.363Z,24.60
2019-01-30T09:36:22.662Z,23.10
2019-01-30T09:38:52.937Z,23.90
2019-01-30T09:41:23.258Z,28.30
2019-01-30T09:43:53.576Z,20.93
2019-01-30T09:46:23.973Z,23.60
2019-01-30T09:48:54.450Z,23.40
2019-01-30T09:51:24.737Z,23.30
2019-01-30T09:53:57.607Z,25.57
2019-01-30T09:56:27.677Z,19.90
2019-01-30T09:58:58.083Z,25.40
2019-01-30T10:01:28.508Z,22.63
2019-01-30T10:03:58.864Z,22.47
2019-01-30T10:06:29.190Z,25.10
2019-01-30T10:09:01.083Z,22.27
2019-01-30T10:11:33.201Z,22.83
2019-01-30T10:14:03.611Z,21.27
2019-01-30T10:16:34.178Z,18.63
2019-01-30T10:19:04.974Z,20.13
2019-01-30T10:21:35.401Z,23.80
2019-01-30T10:24:05.719Z,24.03
2019-01-30T10:26:36.051Z,20.40
2019-01-30T10:29:06.453Z,22.37
2019-01-30T10:31:36.734Z,18.97
2019-01-30T10:34:08.575Z,21.83
2019-01-30T10:36:38.976Z,17.10
2019-01-30T10:39:11.135Z,21.87
2019-01-30T10:41:41.551Z,17.27
2019-01-30T10:44:11.911Z,22.53
2019-01-30T10:46:42.307Z,18.97
2019-01-30T10:49:13.536Z,17.50
2019-01-30T10:51:43.866Z,19.47
2019-01-30T10:54:14.139Z,17.37
2019-01-30T10:56:44.751Z,22.03
2019-01-30T10:59:16.126Z,17.13
2019-01-30T11:01:47.528Z,19.17
2019-01-30T11:04:17.918Z,20.10
2019-01-30T11:06:48.664Z,21.40
2019-01-30T11:09:20.669Z,17.70
2019-01-30T11:11:52.811Z,21.03
2019-01-30T11:14:23.187Z,21.00
2019-01-30T11:16:53.666Z,21.03
2019-01-30T11:19:24.457Z,19.37
2019-01-30T11:21:54.861Z,18.63
2019-01-30T11:24:26.637Z,24.87
2019-01-30T11:26:57.015Z,20.70
2019-01-30T11:29:28.947Z,23.07
2019-01-30T11:31:59.941Z,21.10
2019-01-30T11:34:30.334Z,19.73
2019-01-30T11:37:00.845Z,20.03
2019-01-30T11:39:31.211Z,20.87
2019-01-30T11:42:03.264Z,23.37
2019-01-30T11:44:35.879Z,19.33
2019-01-30T11:47:06.358Z,22.87
2019-01-30T11:49:36.727Z,18.97
2019-01-30T11:52:07.365Z,17.80
2019-01-30T11:54:38.840Z,24.43
2019-01-30T11:57:09.806Z,22.77
2019-01-30T11:59:40.205Z,23.17
2019-01-30T12:02:12.025Z,22.73
2019-01-30T12:04:42.391Z,17.63
2019-01-30T12:07:12.888Z,19.77
2019-01-30T12:09:43.327Z,25.10
2019-01-30T12:12:13.781Z,22.07
2019-01-30T12:14:44.349Z,18.53
2019-01-30T12:17:14.755Z,21.17
2019-01-30T12:19:46.706Z,20.73
2019-01-30T12:22:17.037Z,20.60
2019-01-30T12:24:48.539Z,25.07
2019-01-30T12:27:19.229Z,23.33
2019-01-30T12:29:49.667Z,21.13
2019-01-30T12:32:19.963Z,22.60
2019-01-30T12:34:51.836Z,24.13
2019-01-30T12:37:22.237Z,20.30
2019-01-30T12:39:54.054Z,21.50
2019-01-30T12:42:24.446Z,20.47
2019-01-30T12:44:54.906Z,21.23
2019-01-30T12:47:25.322Z,23.47
2019-01-30T12:49:55.832Z,21.80
2019-01-30T12:52:26.285Z,23.23
2019-01-30T12:54:56.692Z,23.10
2019-01-30T12:57:27.079Z,21.90
2019-01-30T12:59:57.560Z,25.33
2019-01-30T13:02:28.017Z,25.83
2019-01-30T13:04:58.468Z,23.10
2019-01-30T13:07:28.825Z,26.77
2019-01-30T13:09:59.188Z,25.40
2019-01-30T13:12:29.640Z,24.67
2019-01-30T13:15:00.011Z,25.27
2019-01-30T13:17:30.919Z,26.00
2019-01-30T13:20:01.253Z,26.07
2019-01-30T13:22:31.941Z,31.17
2019-01-30T13:25:02.279Z,29.87
2019-01-30T13:27:32.633Z,28.03
2019-01-30T13:30:02.941Z,26.47
2019-01-30T13:32:33.326Z,25.73
2019-01-30T13:35:03.865Z,27.30
2019-01-30T13:37:34.219Z,28.80
2019-01-30T13:40:11.892Z,26.10
2019-01-30T13:42:43.918Z,29.73
2019-01-30T13:45:14.550Z,25.47
2019-01-30T13:47:46.016Z,26.07
2019-01-30T13:50:20.340Z,25.23
2019-01-30T13:52:52.688Z,25.10
2019-01-30T13:55:23.899Z,27.10
2019-01-30T13:57:54.217Z,33.40
2019-01-30T14:00:29.792Z,28.00
2019-01-30T14:03:00.347Z,29.77
2019-01-30T14:05:30.966Z,24.97
2019-01-30T14:08:02.040Z,25.00
2019-01-30T14:10:32.713Z,26.50
2019-01-30T14:13:03.108Z,30.70
2019-01-30T14:15:34.389Z,27.43
2019-01-30T14:18:05.622Z,27.70
2019-01-30T14:20:36.053Z,27.87
2019-01-30T14:23:06.669Z,31.73
2019-01-30T14:25:37.451Z,27.63
2019-01-30T14:28:07.821Z,28.40
2019-01-30T14:30:46.391Z,28.83
2019-01-30T14:33:22.944Z,27.37
2019-01-30T14:35:53.599Z,28.97
2019-01-30T14:38:26.590Z,29.10
2019-01-30T14:40:57.987Z,27.17
2019-01-30T14:43:30.201Z,27.73
2019-01-30T14:46:00.768Z,29.17
2019-01-30T14:48:31.275Z,26.20
2019-01-30T14:51:01.804Z,31.77
2019-01-30T14:53:39.065Z,27.30
2019-01-30T14:56:16.249Z,27.43
2019-01-30T14:58:46.732Z,32.87
2019-01-30T15:01:17.132Z,31.70
2019-01-30T15:03:48.097Z,28.37
2019-01-30T15:06:25.656Z,30.43
2019-01-30T15:09:03.253Z,29.20
2019-01-30T15:11:35.745Z,34.70
2019-01-30T15:14:08.089Z,30.13
2019-01-30T15:16:45.186Z,27.23
2019-01-30T15:19:22.081Z,31.47
2019-01-30T15:22:00.163Z,36.33
2019-01-30T15:24:32.035Z,26.77
2019-01-30T15:27:10.272Z,33.57
2019-01-30T15:29:40.938Z,28.03
2019-01-30T15:32:13.859Z,32.30
2019-01-30T15:34:44.428Z,32.80
2019-01-30T15:37:17.750Z,32.90
2019-01-30T15:39:48.337Z,33.00
2019-01-30T15:42:23.824Z,30.83
2019-01-30T15:44:54.554Z,35.17
2019-01-30T15:47:27.368Z,31.03
2019-01-30T15:50:11.704Z,32.57
2019-01-30T15:55:58.923Z,32.53
2019-01-30T15:59:09.127Z,28.47
2019-01-30T16:01:42.286Z,35.77
2019-01-30T16:04:13.817Z,34.13
2019-01-30T16:06:44.324Z,31.47
2019-01-30T16:09:14.647Z,32.27
2019-01-30T16:11:45.116Z,35.77
2019-01-30T16:14:19.362Z,32.00
2019-01-30T16:16:49.662Z,35.07
2019-01-30T16:19:20.351Z,31.60
2019-01-30T16:21:50.735Z,29.10
2019-01-30T16:24:21.091Z,27.67
2019-01-30T16:26:51.807Z,28.80
2019-01-30T16:29:23.039Z,34.63
2019-01-30T16:31:53.317Z,24.23
2019-01-30T16:34:23.607Z,21.00
2019-01-30T16:36:53.907Z,22.67
2019-01-30T16:39:24.423Z,17.00
2019-01-30T16:41:54.957Z,22.37
2019-01-30T16:44:25.439Z,21.40
2019-01-30T16:46:55.788Z,29.93
2019-01-30T16:49:27.142Z,31.67
2019-01-30T16:51:57.663Z,35.97
2019-01-30T16:54:28.085Z,30.27
2019-01-30T16:57:00.194Z,30.97
2019-01-30T16:59:30.678Z,34.90
2019-01-30T17:02:04.555Z,30.07
2019-01-30T17:04:39.392Z,30.23
2019-01-30T17:07:11.819Z,32.50
2019-01-30T17:09:42.279Z,34.17
2019-01-30T17:12:25.021Z,30.90
2019-01-30T17:14:57.807Z,35.17
2019-01-30T17:17:28.681Z,34.17
2019-01-30T17:19:59.296Z,42.57
2019-01-30T17:22:36.036Z,39.97
2019-01-30T17:25:15.073Z,42.60
2019-01-30T17:27:48.676Z,37.47
2019-01-30T17:30:38.219Z,37.17
2019-01-30T17:33:10.208Z,41.90
2019-01-30T17:35:49.386Z,38.23
2019-01-30T17:38:19.933Z,40.47
2019-01-30T17:40:52.529Z,28.27
2019-01-30T17:43:22.935Z,23.50
2019-01-30T17:45:58.602Z,24.77
2019-01-30T17:48:33.766Z,27.57
2019-01-30T17:51:15.484Z,40.03
2019-01-30T17:53:45.957Z,38.40
2019-01-30T17:56:16.349Z,33.97
2019-01-30T17:58:48.309Z,33.17
2019-01-30T18:01:20.724Z,33.37
2019-01-30T18:03:51.152Z,40.07
2019-01-30T18:06:29.461Z,38.33
2019-01-30T18:08:55.227Z,35.30
2019-01-30T18:11:25.589Z,50.20
2019-01-30T18:13:56.119Z,44.80
2019-01-30T18:16:29.084Z,84.47
2019-01-30T18:18:59.498Z,69.63
2019-01-30T18:21:32.046Z,58.97
2019-01-30T18:24:04.205Z,63.27
2019-01-30T18:26:38.185Z,47.33
2019-01-30T18:29:08.645Z,49.17
2019-01-30T18:31:42.318Z,50.40
2019-01-30T18:34:12.662Z,53.23
2019-01-30T18:36:42.993Z,52.43
2019-01-30T18:39:13.418Z,47.47
2019-01-30T18:41:43.849Z,52.40
2019-01-30T18:44:14.244Z,49.00
2019-01-30T18:46:44.630Z,46.80
2019-01-30T18:49:15.165Z,51.53
2019-01-30T18:51:45.657Z,49.13
2019-01-30T18:54:16.090Z,47.70
2019-01-30T18:56:46.467Z,42.10
2019-01-30T18:59:17.048Z,48.73
2019-01-30T19:01:47.838Z,50.70
2019-01-30T19:04:18.315Z,50.30
2019-01-30T19:06:52.353Z,46.10
2019-01-30T19:09:20.967Z,49.43
2019-01-30T19:11:54.134Z,50.37
2019-01-30T19:14:24.800Z,49.63
2019-01-30T19:16:55.252Z,47.53
2019-01-30T19:19:27.271Z,49.00
2019-01-30T19:21:57.685Z,49.67
2019-01-30T19:24:28.576Z,53.70
2019-01-30T19:26:59.070Z,58.93
2019-01-30T19:29:31.123Z,49.93
2019-01-30T19:32:01.610Z,47.07
2019-01-30T19:34:32.119Z,51.87
2019-01-30T19:37:04.004Z,55.17
2019-01-30T19:39:34.648Z,50.77
2019-01-30T19:42:05.156Z,51.13
2019-01-30T19:44:35.605Z,48.80
2019-01-30T19:47:06.068Z,60.57
2019-01-30T19:49:36.468Z,48.27
2019-01-30T19:52:06.842Z,46.73
2019-01-30T19:54:37.182Z,44.83
2019-01-30T19:57:07.645Z,47.67
2019-01-30T19:59:39.160Z,47.97
2019-01-30T20:02:09.797Z,52.80
2019-01-30T20:04:41.898Z,53.07
2019-01-30T20:07:14.758Z,54.77
2019-01-30T20:09:45.067Z,51.77
2019-01-30T20:12:18.452Z,49.40
2019-01-30T20:14:48.858Z,44.93
2019-01-30T20:17:19.448Z,49.33
2019-01-30T20:19:49.849Z,57.58
2019-01-30T20:22:20.180Z,53.23
2019-01-30T20:24:50.802Z,47.37
2019-01-30T20:27:21.330Z,47.20
2019-01-30T20:29:51.767Z,45.13
2019-01-30T20:32:24.277Z,45.80
2019-01-30T20:34:54.680Z,43.67
2019-01-30T20:37:26.361Z,45.87
2019-01-30T20:39:56.965Z,45.53
2019-01-30T20:42:27.346Z,46.13
2019-01-30T20:44:59.081Z,45.43
2019-01-30T20:47:32.291Z,55.03
2019-01-30T20:50:03.572Z,44.70
2019-01-30T20:52:34.081Z,50.73
2019-01-30T20:55:05.118Z,50.63
2019-01-30T20:57:35.459Z,49.33
2019-01-30T21:00:19.408Z,42.83
2019-01-30T21:02:49.870Z,44.97
2019-01-30T21:05:21.830Z,46.80
2019-01-30T21:07:52.370Z,42.97
2019-01-30T21:10:30.847Z,42.10
2019-01-30T21:13:01.368Z,42.20
2019-01-30T21:15:31.785Z,43.33
2019-01-30T21:18:02.138Z,71.63
2019-01-30T21:20:32.630Z,54.53
2019-01-30T21:23:02.918Z,54.47
2019-01-30T21:25:33.387Z,60.17
2019-01-30T21:28:03.802Z,49.53
2019-01-30T21:30:35.948Z,50.90
2019-01-30T21:33:06.316Z,42.47
2019-01-30T21:35:36.676Z,44.03
2019-01-30T21:38:07.477Z,53.20
2019-01-30T21:40:37.927Z,45.77
2019-01-30T21:43:08.304Z,43.27
2019-01-30T21:45:40.192Z,38.80
2019-01-30T21:48:10.411Z,40.20
2019-01-30T21:50:40.841Z,45.90
2019-01-30T21:53:11.210Z,43.13
2019-01-30T21:55:41.517Z,41.83
2019-01-30T21:58:11.825Z,38.47
2019-01-30T22:00:42.396Z,47.87
2019-01-30T22:03:12.822Z,47.50
2019-01-30T22:05:43.409Z,46.57
2019-01-30T22:08:15.341Z,43.77
2019-01-30T22:10:45.695Z,46.70
2019-01-30T22:13:16.257Z,42.10
2019-01-30T22:15:46.755Z,43.23
2019-01-30T22:18:17.279Z,45.93
2019-01-30T22:20:47.707Z,43.63
2019-01-30T22:23:25.882Z,44.37
2019-01-30T22:25:56.428Z,42.03
2019-01-30T22:28:26.896Z,41.80
2019-01-30T22:30:57.415Z,45.27
2019-01-30T22:33:27.706Z,44.70
2019-01-30T22:35:58.161Z,44.17
2019-01-30T22:38:29.428Z,43.93
2019-01-30T22:40:59.857Z,43.57
2019-01-30T22:43:30.344Z,44.43
2019-01-30T22:46:00.708Z,39.57
2019-01-30T22:48:31.112Z,42.77
2019-01-30T22:51:01.405Z,41.13
2019-01-30T22:53:31.837Z,39.13
2019-01-30T22:56:02.885Z,47.27
2019-01-30T22:58:33.191Z,42.80
2019-01-30T23:01:19.898Z,42.70
2019-01-30T23:04:21.856Z,46.03
2019-01-30T23:07:05.574Z,40.30
2019-01-30T23:10:26.019Z,42.50
2019-01-30T23:13:07.575Z,39.13
2019-01-30T23:16:03.391Z,40.83
2019-01-30T23:19:08.423Z,36.97
2019-01-30T23:21:48.453Z,33.80
2019-01-30T23:24:56.123Z,37.83
2019-01-30T23:27:38.837Z,32.77
2019-01-30T23:30:29.025Z,31.13
2019-01-30T23:33:40.923Z,34.43
2019-01-30T23:36:43.340Z,29.10
2019-01-30T23:39:57.891Z,30.87
2019-01-30T23:43:14.775Z,24.17
2019-01-30T23:46:29.717Z,27.10
2019-01-30T23:49:53.703Z,25.03
2019-01-30T23:53:01.713Z,20.27
2019-01-30T23:56:12.873Z,22.03
2019-01-30T23:59:09.597Z,22.27
